sensor_id;sensor_type;location;lat;lon;timestamp;pressure;altitude;pressure_sealevel;temperature;humidity
40315;BME280;26021;45.640;11.302;2023-04-06T00:02:24;99042.28;;;3.66;87.72
40315;BME280;26021;45.640;11.302;2023-04-06T00:04:49;99030.00;;;3.76;88.35
40315;BME280;26021;45.640;11.302;2023-04-06T00:07:15;99044.47;;;3.61;86.39
40315;BME280;26021;45.640;11.302;2023-04-06T00:09:40;99046.44;;;3.79;86.60
40315;BME280;26021;45.640;11.302;2023-04-06T00:12:06;98829.59;;;2.54;85.20
40315;BME280;26021;45.640;11.302;2023-04-06T00:14:31;99044.69;;;3.69;87.39
40315;BME280;26021;45.640;11.302;2023-04-06T00:16:57;99038.69;;;3.88;86.66
40315;BME280;26021;45.640;11.302;2023-04-06T00:19:22;99038.31;;;3.92;86.02
40315;BME280;26021;45.640;11.302;2023-04-06T00:21:47;98993.78;;;3.56;86.40
40315;BME280;26021;45.640;11.302;2023-04-06T00:24:13;99042.00;;;3.80;86.73
40315;BME280;26021;45.640;11.302;2023-04-06T00:26:38;99043.56;;;3.71;87.06
40315;BME280;26021;45.640;11.302;2023-04-06T00:29:04;99043.63;;;3.60;88.25
40315;BME280;26021;45.640;11.302;2023-04-06T00:31:29;99038.53;;;3.47;90.01
40315;BME280;26021;45.640;11.302;2023-04-06T00:33:55;99050.69;;;3.71;89.67
40315;BME280;26021;45.640;11.302;2023-04-06T00:36:20;99044.34;;;3.62;89.89
40315;BME280;26021;45.640;11.302;2023-04-06T00:38:46;98978.16;;;3.32;88.49
40315;BME280;26021;45.640;11.302;2023-04-06T00:41:11;99035.44;;;3.63;88.53
40315;BME280;26021;45.640;11.302;2023-04-06T00:43:37;99035.19;;;3.66;88.82
40315;BME280;26021;45.640;11.302;2023-04-06T00:46:02;99034.81;;;3.71;88.50
40315;BME280;26021;45.640;11.302;2023-04-06T00:48:28;99019.66;;;3.52;90.41
40315;BME280;26021;45.640;11.302;2023-04-06T00:50:55;99031.59;;;3.67;90.09
40315;BME280;26021;45.640;11.302;2023-04-06T00:53:20;98978.94;;;3.23;89.80
40315;BME280;26021;45.640;11.302;2023-04-06T00:55:46;98958.41;;;2.83;92.28
40315;BME280;26021;45.640;11.302;2023-04-06T00:58:12;98948.50;;;3.28;90.15
40315;BME280;26021;45.640;11.302;2023-04-06T01:00:37;99020.94;;;3.58;90.51
40315;BME280;26021;45.640;11.302;2023-04-06T01:03:03;99017.63;;;3.44;91.45
40315;BME280;26021;45.640;11.302;2023-04-06T01:05:33;99014.66;;;3.38;93.03
40315;BME280;26021;45.640;11.302;2023-04-06T01:07:59;99011.44;;;3.55;91.11
40315;BME280;26021;45.640;11.302;2023-04-06T01:10:26;99014.59;;;3.28;92.18
40315;BME280;26021;45.640;11.302;2023-04-06T01:12:52;99010.41;;;3.46;92.37
40315;BME280;26021;45.640;11.302;2023-04-06T01:15:18;98994.28;;;3.29;93.41
40315;BME280;26021;45.640;11.302;2023-04-06T01:17:44;99008.63;;;3.47;92.23
40315;BME280;26021;45.640;11.302;2023-04-06T01:20:10;98907.94;;;2.65;93.09
40315;BME280;26021;45.640;11.302;2023-04-06T01:22:35;99011.09;;;3.28;92.74
40315;BME280;26021;45.640;11.302;2023-04-06T01:25:01;99011.56;;;3.33;94.19
40315;BME280;26021;45.640;11.302;2023-04-06T01:27:26;99008.97;;;3.22;94.56
40315;BME280;26021;45.640;11.302;2023-04-06T01:29:53;98982.41;;;3.23;94.29
40315;BME280;26021;45.640;11.302;2023-04-06T01:32:18;99007.69;;;3.37;94.70
40315;BME280;26021;45.640;11.302;2023-04-06T01:34:44;98931.41;;;2.79;97.65
40315;BME280;26021;45.640;11.302;2023-04-06T01:37:10;99009.03;;;3.10;97.87
40315;BME280;26021;45.640;11.302;2023-04-06T01:39:35;99010.81;;;3.42;95.32
40315;BME280;26021;45.640;11.302;2023-04-06T01:42:01;99003.56;;;3.44;94.86
40315;BME280;26021;45.640;11.302;2023-04-06T01:44:26;98990.28;;;3.34;94.87
40315;BME280;26021;45.640;11.302;2023-04-06T01:46:52;99003.22;;;3.16;95.37
40315;BME280;26021;45.640;11.302;2023-04-06T01:49:17;99005.31;;;3.34;96.76
40315;BME280;26021;45.640;11.302;2023-04-06T01:51:42;98926.47;;;2.86;98.27
40315;BME280;26021;45.640;11.302;2023-04-06T01:54:08;98993.91;;;3.33;98.53
40315;BME280;26021;45.640;11.302;2023-04-06T01:56:33;98326.56;;;-0.72;96.51
40315;BME280;26021;45.640;11.302;2023-04-06T01:58:59;98975.38;;;3.12;96.35
40315;BME280;26021;45.640;11.302;2023-04-06T02:01:24;98991.38;;;3.32;96.53
40315;BME280;26021;45.640;11.302;2023-04-06T02:03:50;99000.28;;;3.31;96.83
40315;BME280;26021;45.640;11.302;2023-04-06T02:06:15;98996.00;;;3.18;98.18
40315;BME280;26021;45.640;11.302;2023-04-06T02:08:41;99001.00;;;3.33;97.95
40315;BME280;26021;45.640;11.302;2023-04-06T02:11:06;98978.97;;;3.11;99.31
40315;BME280;26021;45.640;11.302;2023-04-06T02:13:33;99002.28;;;3.38;97.74
40315;BME280;26021;45.640;11.302;2023-04-06T02:15:58;98966.91;;;2.86;97.37
40315;BME280;26021;45.640;11.302;2023-04-06T02:18:24;99008.84;;;3.23;97.83
40315;BME280;26021;45.640;11.302;2023-04-06T02:20:49;99013.91;;;3.47;96.95
40315;BME280;26021;45.640;11.302;2023-04-06T02:23:15;98927.50;;;2.95;96.94
40315;BME280;26021;45.640;11.302;2023-04-06T02:25:40;99016.78;;;3.23;97.76
40315;BME280;26021;45.640;11.302;2023-04-06T02:28:06;99018.59;;;3.23;100.00
40315;BME280;26021;45.640;11.302;2023-04-06T02:30:31;99016.31;;;3.18;100.00
40315;BME280;26021;45.640;11.302;2023-04-06T02:32:59;99019.94;;;3.38;100.00
40315;BME280;26021;45.640;11.302;2023-04-06T02:35:25;99020.50;;;3.21;100.00
40315;BME280;26021;45.640;11.302;2023-04-06T02:37:50;99019.25;;;3.36;98.88
40315;BME280;26021;45.640;11.302;2023-04-06T02:40:16;98794.53;;;1.88;96.43
40315;BME280;26021;45.640;11.302;2023-04-06T02:42:41;98873.91;;;2.51;96.08
40315;BME280;26021;45.640;11.302;2023-04-06T02:45:07;99025.59;;;3.12;99.64
40315;BME280;26021;45.640;11.302;2023-04-06T02:47:33;99023.88;;;3.43;98.05
40315;BME280;26021;45.640;11.302;2023-04-06T02:49:58;99030.16;;;3.42;97.41
40315;BME280;26021;45.640;11.302;2023-04-06T02:52:24;98978.56;;;3.27;97.17
40315;BME280;26021;45.640;11.302;2023-04-06T02:54:49;99043.94;;;3.46;98.66
40315;BME280;26021;45.640;11.302;2023-04-06T02:57:16;98992.25;;;3.00;99.08
40315;BME280;26021;45.640;11.302;2023-04-06T02:59:42;98966.78;;;2.88;100.00
40315;BME280;26021;45.640;11.302;2023-04-06T03:02:07;99028.09;;;3.46;97.39
40315;BME280;26021;45.640;11.302;2023-04-06T03:04:32;99034.09;;;3.48;95.32
40315;BME280;26021;45.640;11.302;2023-04-06T03:06:58;99026.66;;;3.42;96.02
40315;BME280;26021;45.640;11.302;2023-04-06T03:09:23;99030.47;;;3.49;96.60
40315;BME280;26021;45.640;11.302;2023-04-06T03:11:49;99030.16;;;3.63;97.28
40315;BME280;26021;45.640;11.302;2023-04-06T03:14:14;99022.06;;;3.76;96.65
40315;BME280;26021;45.640;11.302;2023-04-06T03:16:39;98962.44;;;3.51;94.98
40315;BME280;26021;45.640;11.302;2023-04-06T03:19:05;99018.53;;;3.55;96.31
40315;BME280;26021;45.640;11.302;2023-04-06T03:21:30;99036.81;;;3.58;98.15
40315;BME280;26021;45.640;11.302;2023-04-06T03:23:56;99039.50;;;3.46;99.54
40315;BME280;26021;45.640;11.302;2023-04-06T03:26:21;99022.22;;;3.42;99.56
40315;BME280;26021;45.640;11.302;2023-04-06T03:28:47;99037.56;;;3.48;99.44
40315;BME280;26021;45.640;11.302;2023-04-06T03:31:13;99040.28;;;3.58;97.31
40315;BME280;26021;45.640;11.302;2023-04-06T03:33:38;99039.13;;;3.51;98.87
40315;BME280;26021;45.640;11.302;2023-04-06T03:36:04;99031.56;;;3.46;99.52
40315;BME280;26021;45.640;11.302;2023-04-06T03:38:29;99046.38;;;3.38;100.00
40315;BME280;26021;45.640;11.302;2023-04-06T03:40:55;99052.78;;;3.35;100.00
40315;BME280;26021;45.640;11.302;2023-04-06T03:43:20;99044.88;;;3.24;100.00
40315;BME280;26021;45.640;11.302;2023-04-06T03:45:46;99022.59;;;3.06;100.00
40315;BME280;26021;45.640;11.302;2023-04-06T03:48:11;99048.06;;;3.39;100.00
40315;BME280;26021;45.640;11.302;2023-04-06T03:50:36;99050.91;;;3.79;97.69
40315;BME280;26021;45.640;11.302;2023-04-06T03:53:02;99046.25;;;3.39;98.66
40315;BME280;26021;45.640;11.302;2023-04-06T03:55:30;99043.94;;;3.46;99.00
40315;BME280;26021;45.640;11.302;2023-04-06T03:57:56;99042.28;;;3.66;93.47
40315;BME280;26021;45.640;11.302;2023-04-06T04:00:21;98974.28;;;3.15;90.81
40315;BME280;26021;45.640;11.302;2023-04-06T04:02:46;99050.28;;;3.55;94.48
40315;BME280;26021;45.640;11.302;2023-04-06T04:05:12;99051.19;;;3.65;96.20
40315;BME280;26021;45.640;11.302;2023-04-06T04:07:37;98893.50;;;2.69;97.73
40315;BME280;26021;45.640;11.302;2023-04-06T04:10:03;99051.41;;;3.73;97.30
40315;BME280;26021;45.640;11.302;2023-04-06T04:12:29;99056.78;;;3.50;99.71
40315;BME280;26021;45.640;11.302;2023-04-06T04:14:54;99051.81;;;3.36;97.88
40315;BME280;26021;45.640;11.302;2023-04-06T04:17:21;99066.03;;;3.56;97.09
40315;BME280;26021;45.640;11.302;2023-04-06T04:19:47;99048.47;;;3.55;96.99
40315;BME280;26021;45.640;11.302;2023-04-06T04:22:12;99052.47;;;3.49;95.17
40315;BME280;26021;45.640;11.302;2023-04-06T04:24:37;99049.25;;;3.46;92.27
40315;BME280;26021;45.640;11.302;2023-04-06T04:27:03;99055.53;;;3.34;91.27
40315;BME280;26021;45.640;11.302;2023-04-06T04:29:30;98980.84;;;2.88;89.73
40315;BME280;26021;45.640;11.302;2023-04-06T04:31:55;99051.94;;;3.35;91.52
40315;BME280;26021;45.640;11.302;2023-04-06T04:34:20;99054.97;;;3.30;92.62
40315;BME280;26021;45.640;11.302;2023-04-06T04:36:48;99053.81;;;3.44;91.47
40315;BME280;26021;45.640;11.302;2023-04-06T04:39:14;99050.56;;;3.19;93.64
40315;BME280;26021;45.640;11.302;2023-04-06T04:41:40;98984.34;;;2.78;92.93
40315;BME280;26021;45.640;11.302;2023-04-06T04:44:05;99048.44;;;3.34;94.00
40315;BME280;26021;45.640;11.302;2023-04-06T04:46:30;99050.03;;;3.26;94.26
40315;BME280;26021;45.640;11.302;2023-04-06T04:48:56;98983.97;;;2.82;93.31
40315;BME280;26021;45.640;11.302;2023-04-06T04:51:21;99051.75;;;3.15;96.29
40315;BME280;26021;45.640;11.302;2023-04-06T04:53:47;98954.91;;;2.50;96.63
40315;BME280;26021;45.640;11.302;2023-04-06T04:56:12;99014.34;;;2.88;97.60
40315;BME280;26021;45.640;11.302;2023-04-06T04:58:37;98963.28;;;2.55;97.69
40315;BME280;26021;45.640;11.302;2023-04-06T05:01:03;99050.72;;;3.07;98.04
40315;BME280;26021;45.640;11.302;2023-04-06T05:03:29;98983.47;;;2.45;98.82
40315;BME280;26021;45.640;11.302;2023-04-06T05:05:54;99029.69;;;3.05;96.28
40315;BME280;26021;45.640;11.302;2023-04-06T05:08:20;99056.16;;;3.26;92.79
40315;BME280;26021;45.640;11.302;2023-04-06T05:10:45;99052.63;;;3.05;94.23
40315;BME280;26021;45.640;11.302;2023-04-06T05:13:11;99055.16;;;3.06;93.18
40315;BME280;26021;45.640;11.302;2023-04-06T05:15:37;99052.00;;;3.44;88.88
40315;BME280;26021;45.640;11.302;2023-04-06T05:18:07;99054.97;;;3.30;89.39
40315;BME280;26021;45.640;11.302;2023-04-06T05:20:33;99052.78;;;3.35;87.71
40315;BME280;26021;45.640;11.302;2023-04-06T05:22:59;99063.09;;;3.38;84.90
40315;BME280;26021;45.640;11.302;2023-04-06T05:25:25;99056.16;;;3.26;87.15
40315;BME280;26021;45.640;11.302;2023-04-06T05:27:50;99057.94;;;3.37;87.63
40315;BME280;26021;45.640;11.302;2023-04-06T05:30:16;98989.75;;;2.76;90.04
40315;BME280;26021;45.640;11.302;2023-04-06T05:32:42;99061.91;;;3.31;89.74
40315;BME280;26021;45.640;11.302;2023-04-06T05:35:09;99038.31;;;3.18;88.88
40315;BME280;26021;45.640;11.302;2023-04-06T05:37:35;99054.16;;;3.50;86.29
40315;BME280;26021;45.640;11.302;2023-04-06T05:40:00;99053.69;;;3.45;86.64
40315;BME280;26021;45.640;11.302;2023-04-06T05:42:26;99052.34;;;3.51;88.26
40315;BME280;26021;45.640;11.302;2023-04-06T05:44:52;99025.44;;;3.46;90.82
40315;BME280;26021;45.640;11.302;2023-04-06T05:47:17;99048.09;;;3.60;89.20
40315;BME280;26021;45.640;11.302;2023-04-06T05:49:43;99045.78;;;3.66;90.49
40315;BME280;26021;45.640;11.302;2023-04-06T05:52:08;99022.38;;;3.82;90.01
40315;BME280;26021;45.640;11.302;2023-04-06T05:54:35;99056.84;;;3.92;88.94
40315;BME280;26021;45.640;11.302;2023-04-06T05:57:02;99059.50;;;4.23;84.35
40315;BME280;26021;45.640;11.302;2023-04-06T05:59:32;99060.22;;;4.25;79.53
40315;BME280;26021;45.640;11.302;2023-04-06T06:01:57;99065.66;;;4.23;82.54
40315;BME280;26021;45.640;11.302;2023-04-06T06:04:23;99063.63;;;4.36;82.02
40315;BME280;26021;45.640;11.302;2023-04-06T06:06:48;99035.56;;;4.24;78.54
40315;BME280;26021;45.640;11.302;2023-04-06T06:09:14;99044.03;;;4.49;77.92
40315;BME280;26021;45.640;11.302;2023-04-06T06:11:39;99069.38;;;4.72;77.76
40315;BME280;26021;45.640;11.302;2023-04-06T06:14:05;99075.25;;;4.85;78.54
40315;BME280;26021;45.640;11.302;2023-04-06T06:16:31;99077.47;;;4.80;77.66
40315;BME280;26021;45.640;11.302;2023-04-06T06:18:56;99046.94;;;4.86;76.72
40315;BME280;26021;45.640;11.302;2023-04-06T06:21:22;98922.97;;;4.30;75.61
40315;BME280;26021;45.640;11.302;2023-04-06T06:23:47;99065.75;;;5.42;74.66
40315;BME280;26021;45.640;11.302;2023-04-06T06:26:14;99048.72;;;5.45;75.88
40315;BME280;26021;45.640;11.302;2023-04-06T06:28:40;99058.75;;;5.70;72.48
40315;BME280;26021;45.640;11.302;2023-04-06T06:31:05;99067.69;;;5.88;70.16
40315;BME280;26021;45.640;11.302;2023-04-06T06:33:30;99068.28;;;6.01;69.25
40315;BME280;26021;45.640;11.302;2023-04-06T06:35:56;99060.56;;;5.89;68.21
40315;BME280;26021;45.640;11.302;2023-04-06T06:38:21;99058.34;;;6.13;65.94
40315;BME280;26021;45.640;11.302;2023-04-06T06:40:47;99057.53;;;6.40;66.30
40315;BME280;26021;45.640;11.302;2023-04-06T06:43:12;98841.31;;;5.12;64.98
40315;BME280;26021;45.640;11.302;2023-04-06T06:45:38;99054.53;;;6.62;62.58
40315;BME280;26021;45.640;11.302;2023-04-06T06:48:03;99055.31;;;7.00;63.27
40315;BME280;26021;45.640;11.302;2023-04-06T06:50:29;99058.44;;;6.95;62.03
40315;BME280;26021;45.640;11.302;2023-04-06T06:52:54;98984.81;;;6.96;62.19
40315;BME280;26021;45.640;11.302;2023-04-06T06:55:19;98998.13;;;6.68;61.11
40315;BME280;26021;45.640;11.302;2023-04-06T06:57:45;99055.56;;;7.52;61.96
40315;BME280;26021;45.640;11.302;2023-04-06T07:00:14;98989.22;;;7.41;60.43
40315;BME280;26021;45.640;11.302;2023-04-06T07:02:40;99048.91;;;7.74;60.93
40315;BME280;26021;45.640;11.302;2023-04-06T07:05:06;99052.28;;;7.58;59.96
40315;BME280;26021;45.640;11.302;2023-04-06T07:07:32;99049.47;;;8.03;60.56
40315;BME280;26021;45.640;11.302;2023-04-06T07:09:58;99050.13;;;7.79;58.62
40315;BME280;26021;45.640;11.302;2023-04-06T07:12:24;99057.47;;;8.03;56.30
40315;BME280;26021;45.640;11.302;2023-04-06T07:14:50;99054.09;;;7.57;57.05
40315;BME280;26021;45.640;11.302;2023-04-06T07:17:15;99056.84;;;7.65;55.39
40315;BME280;26021;45.640;11.302;2023-04-06T07:19:41;99050.75;;;7.55;54.12
40315;BME280;26021;45.640;11.302;2023-04-06T07:22:06;98979.50;;;7.31;53.64
40315;BME280;26021;45.640;11.302;2023-04-06T07:24:32;99044.56;;;8.16;54.11
40315;BME280;26021;45.640;11.302;2023-04-06T07:26:58;99035.25;;;7.94;50.53
40315;BME280;26021;45.640;11.302;2023-04-06T07:29:26;99036.03;;;8.13;50.86
40315;BME280;26021;45.640;11.302;2023-04-06T07:31:52;99037.19;;;8.10;50.13
40315;BME280;26021;45.640;11.302;2023-04-06T07:34:18;99037.13;;;8.20;49.30
40315;BME280;26021;45.640;11.302;2023-04-06T07:36:43;99039.16;;;8.26;47.70
40315;BME280;26021;45.640;11.302;2023-04-06T07:39:09;98980.94;;;7.87;48.83
40315;BME280;26021;45.640;11.302;2023-04-06T07:41:35;99028.88;;;8.65;48.75
40315;BME280;26021;45.640;11.302;2023-04-06T07:44:01;99029.94;;;8.80;49.82
40315;BME280;26021;45.640;11.302;2023-04-06T07:46:26;99031.94;;;8.78;48.45
40315;BME280;26021;45.640;11.302;2023-04-06T07:48:52;99024.38;;;9.00;47.27
40315;BME280;26021;45.640;11.302;2023-04-06T07:51:17;99028.88;;;8.65;46.71
40315;BME280;26021;45.640;11.302;2023-04-06T07:53:45;99022.22;;;9.03;45.47
40315;BME280;26021;45.640;11.302;2023-04-06T07:56:11;98983.19;;;8.52;45.65
40315;BME280;26021;45.640;11.302;2023-04-06T07:58:37;99025.59;;;8.71;46.43
40315;BME280;26021;45.640;11.302;2023-04-06T08:01:03;98903.47;;;8.33;46.86
40315;BME280;26021;45.640;11.302;2023-04-06T08:03:28;99013.78;;;9.48;47.10
40315;BME280;26021;45.640;11.302;2023-04-06T08:05:54;98942.38;;;9.26;45.86
40315;BME280;26021;45.640;11.302;2023-04-06T08:08:20;99008.63;;;9.87;45.74
40315;BME280;26021;45.640;11.302;2023-04-06T08:10:47;99008.59;;;9.39;45.69
40315;BME280;26021;45.640;11.302;2023-04-06T08:13:13;98937.19;;;9.24;47.51
40315;BME280;26021;45.640;11.302;2023-04-06T08:15:39;99000.59;;;9.55;46.42
40315;BME280;26021;45.640;11.302;2023-04-06T08:18:05;98927.84;;;9.29;45.49
40315;BME280;26021;45.640;11.302;2023-04-06T08:20:30;98998.25;;;9.93;45.93
40315;BME280;26021;45.640;11.302;2023-04-06T08:22:56;99002.13;;;9.82;45.43
40315;BME280;26021;45.640;11.302;2023-04-06T08:25:21;98985.75;;;9.44;47.85
40315;BME280;26021;45.640;11.302;2023-04-06T08:27:47;98962.06;;;9.41;49.31
40315;BME280;26021;45.640;11.302;2023-04-06T08:30:13;98954.88;;;9.34;47.53
40315;BME280;26021;45.640;11.302;2023-04-06T08:32:40;98919.16;;;9.02;47.19
40315;BME280;26021;45.640;11.302;2023-04-06T08:35:06;98970.91;;;9.34;46.38
40315;BME280;26021;45.640;11.302;2023-04-06T08:37:33;98944.53;;;9.06;47.25
40315;BME280;26021;45.640;11.302;2023-04-06T08:39:58;98994.41;;;9.46;48.15
40315;BME280;26021;45.640;11.302;2023-04-06T08:42:25;99003.63;;;9.68;47.50
40315;BME280;26021;45.640;11.302;2023-04-06T08:44:51;98970.22;;;9.56;48.34
40315;BME280;26021;45.640;11.302;2023-04-06T08:47:18;98940.69;;;9.66;46.74
40315;BME280;26021;45.640;11.302;2023-04-06T08:49:44;98936.00;;;9.60;46.75
40315;BME280;26021;45.640;11.302;2023-04-06T08:52:11;98995.28;;;9.87;46.14
40315;BME280;26021;45.640;11.302;2023-04-06T08:54:37;98983.28;;;9.67;46.27
40315;BME280;26021;45.640;11.302;2023-04-06T08:57:03;98989.28;;;9.69;46.81
40315;BME280;26021;45.640;11.302;2023-04-06T08:59:29;98950.38;;;9.34;46.83
40315;BME280;26021;45.640;11.302;2023-04-06T09:01:56;98966.38;;;9.50;47.68
40315;BME280;26021;45.640;11.302;2023-04-06T09:04:21;98973.06;;;9.63;47.80
40315;BME280;26021;45.640;11.302;2023-04-06T09:06:47;98963.72;;;9.59;47.52
40315;BME280;26021;45.640;11.302;2023-04-06T09:09:12;98969.19;;;9.98;47.54
40315;BME280;26021;45.640;11.302;2023-04-06T09:11:43;98971.59;;;9.68;47.19
40315;BME280;26021;45.640;11.302;2023-04-06T09:14:08;98985.56;;;10.03;48.26
40315;BME280;26021;45.640;11.302;2023-04-06T09:16:42;98982.34;;;10.15;46.16
40315;BME280;26021;45.640;11.302;2023-04-06T09:19:08;98989.38;;;10.16;47.92
40315;BME280;26021;45.640;11.302;2023-04-06T09:21:34;98971.19;;;10.20;46.61
40315;BME280;26021;45.640;11.302;2023-04-06T09:24:00;98785.59;;;9.12;46.04
40315;BME280;26021;45.640;11.302;2023-04-06T09:26:26;98914.31;;;9.71;46.53
40315;BME280;26021;45.640;11.302;2023-04-06T09:28:57;98953.78;;;10.16;48.86
40315;BME280;26021;45.640;11.302;2023-04-06T09:31:31;98973.97;;;10.35;45.99
40315;BME280;26021;45.640;11.302;2023-04-06T09:34:00;98974.66;;;10.29;47.11
40315;BME280;26021;45.640;11.302;2023-04-06T09:36:31;98962.28;;;10.19;45.87
40315;BME280;26021;45.640;11.302;2023-04-06T09:38:59;98971.94;;;10.53;47.55
40315;BME280;26021;45.640;11.302;2023-04-06T09:43:52;98965.16;;;10.26;46.00
40315;BME280;26021;45.640;11.302;2023-04-06T09:46:20;98964.78;;;10.45;46.60
40315;BME280;26021;45.640;11.302;2023-04-06T09:48:46;98950.09;;;10.33;46.89
40315;BME280;26021;45.640;11.302;2023-04-06T09:51:13;98957.41;;;10.39;45.93
40315;BME280;26021;45.640;11.302;2023-04-06T09:53:43;98948.34;;;10.57;47.47
40315;BME280;26021;45.640;11.302;2023-04-06T09:56:12;98912.22;;;10.22;46.44
40315;BME280;26021;45.640;11.302;2023-04-06T09:58:43;98947.69;;;10.86;46.61
40315;BME280;26021;45.640;11.302;2023-04-06T10:01:15;98949.25;;;11.03;46.14
40315;BME280;26021;45.640;11.302;2023-04-06T10:03:49;98943.16;;;10.86;45.74
40315;BME280;26021;45.640;11.302;2023-04-06T10:06:22;98938.63;;;10.64;46.04
40315;BME280;26021;45.640;11.302;2023-04-06T10:08:50;98931.25;;;10.66;47.15
40315;BME280;26021;45.640;11.302;2023-04-06T10:11:17;98930.69;;;10.78;45.75
40315;BME280;26021;45.640;11.302;2023-04-06T10:13:45;98893.94;;;10.72;46.02
40315;BME280;26021;45.640;11.302;2023-04-06T10:16:13;98888.88;;;10.77;47.28
40315;BME280;26021;45.640;11.302;2023-04-06T10:18:43;98859.38;;;10.63;45.80
40315;BME280;26021;45.640;11.302;2023-04-06T10:21:12;98891.56;;;10.77;45.72
40315;BME280;26021;45.640;11.302;2023-04-06T10:23:51;98866.13;;;10.81;46.24
40315;BME280;26021;45.640;11.302;2023-04-06T10:26:20;98913.44;;;11.04;47.85
40315;BME280;26021;45.640;11.302;2023-04-06T10:28:47;98788.97;;;10.47;45.43
40315;BME280;26021;45.640;11.302;2023-04-06T10:31:13;98911.56;;;11.35;46.68
40315;BME280;26021;45.640;11.302;2023-04-06T10:33:39;98895.81;;;11.55;48.54
40315;BME280;26021;45.640;11.302;2023-04-06T10:36:15;98904.66;;;11.41;45.40
40315;BME280;26021;45.640;11.302;2023-04-06T10:38:42;98894.53;;;11.05;44.98
40315;BME280;26021;45.640;11.302;2023-04-06T10:41:09;98909.06;;;11.34;46.08
40315;BME280;26021;45.640;11.302;2023-04-06T10:43:37;98899.38;;;11.33;45.67
40315;BME280;26021;45.640;11.302;2023-04-06T10:46:05;98901.75;;;11.65;46.60
40315;BME280;26021;45.640;11.302;2023-04-06T10:51:07;98827.16;;;11.02;44.92
40315;BME280;26021;45.640;11.302;2023-04-06T10:53:33;98873.84;;;11.74;45.03
40315;BME280;26021;45.640;11.302;2023-04-06T10:55:59;98842.50;;;11.31;42.91
40315;BME280;26021;45.640;11.302;2023-04-06T10:58:26;98885.97;;;11.10;44.27
40315;BME280;26021;45.640;11.302;2023-04-06T11:00:52;98878.44;;;11.51;44.48
40315;BME280;26021;45.640;11.302;2023-04-06T11:03:18;98874.00;;;11.96;44.17
40315;BME280;26021;45.640;11.302;2023-04-06T11:05:45;98877.59;;;12.18;42.69
40315;BME280;26021;45.640;11.302;2023-04-06T11:08:21;98875.41;;;11.92;41.71
40315;BME280;26021;45.640;11.302;2023-04-06T11:10:47;98808.44;;;11.39;43.01
40315;BME280;26021;45.640;11.302;2023-04-06T11:13:14;98784.97;;;11.56;42.07
40315;BME280;26021;45.640;11.302;2023-04-06T11:15:39;98858.56;;;12.13;41.27
40315;BME280;26021;45.640;11.302;2023-04-06T11:18:05;98843.41;;;11.23;41.58
40315;BME280;26021;45.640;11.302;2023-04-06T11:20:30;98846.41;;;11.58;42.72
40315;BME280;26021;45.640;11.302;2023-04-06T11:22:56;98844.94;;;11.70;42.85
40315;BME280;26021;45.640;11.302;2023-04-06T11:25:23;98841.56;;;12.05;42.37
40315;BME280;26021;45.640;11.302;2023-04-06T11:27:50;98832.94;;;12.25;42.26
40315;BME280;26021;45.640;11.302;2023-04-06T11:30:16;98834.25;;;12.50;41.62
40315;BME280;26021;45.640;11.302;2023-04-06T11:32:45;98815.75;;;12.55;41.77
40315;BME280;26021;45.640;11.302;2023-04-06T11:35:13;98824.94;;;12.46;41.56
40315;BME280;26021;45.640;11.302;2023-04-06T11:37:44;98803.38;;;11.89;42.04
40315;BME280;26021;45.640;11.302;2023-04-06T11:40:10;98751.09;;;11.93;42.46
40315;BME280;26021;45.640;11.302;2023-04-06T11:42:35;98823.13;;;12.68;42.31
40315;BME280;26021;45.640;11.302;2023-04-06T11:45:01;98813.72;;;12.21;42.92
40315;BME280;26021;45.640;11.302;2023-04-06T11:47:32;98753.91;;;12.21;43.25
40315;BME280;26021;45.640;11.302;2023-04-06T11:50:08;98813.78;;;13.07;43.67
40315;BME280;26021;45.640;11.302;2023-04-06T11:53:01;98783.59;;;13.26;42.37
40315;BME280;26021;45.640;11.302;2023-04-06T11:55:28;98762.19;;;13.11;40.88
40315;BME280;26021;45.640;11.302;2023-04-06T11:57:54;98780.44;;;12.94;41.88
40315;BME280;26021;45.640;11.302;2023-04-06T12:00:20;98800.19;;;12.87;41.71
40315;BME280;26021;45.640;11.302;2023-04-06T12:02:47;98800.81;;;13.10;42.81
40315;BME280;26021;45.640;11.302;2023-04-06T12:05:13;98798.78;;;12.91;41.46
40315;BME280;26021;45.640;11.302;2023-04-06T12:07:38;98711.13;;;12.13;41.44
40315;BME280;26021;45.640;11.302;2023-04-06T12:10:04;98769.97;;;12.78;42.63
40315;BME280;26021;45.640;11.302;2023-04-06T12:12:30;98703.22;;;11.90;41.95
40315;BME280;26021;45.640;11.302;2023-04-06T12:14:56;98737.44;;;12.45;42.68
40315;BME280;26021;45.640;11.302;2023-04-06T12:17:22;98779.41;;;13.17;40.14
40315;BME280;26021;45.640;11.302;2023-04-06T12:19:48;98770.19;;;13.04;40.75
40315;BME280;26021;45.640;11.302;2023-04-06T12:22:14;98767.25;;;12.99;41.43
40315;BME280;26021;45.640;11.302;2023-04-06T12:24:39;98763.41;;;13.09;42.04
40315;BME280;26021;45.640;11.302;2023-04-06T12:27:05;98733.63;;;13.31;40.74
40315;BME280;26021;45.640;11.302;2023-04-06T12:29:30;98759.63;;;13.52;40.88
40315;BME280;26021;45.640;11.302;2023-04-06T12:31:56;98757.13;;;13.51;40.45
40315;BME280;26021;45.640;11.302;2023-04-06T12:34:21;98692.88;;;12.65;39.99
40315;BME280;26021;45.640;11.302;2023-04-06T12:36:46;98743.94;;;13.00;40.79
40315;BME280;26021;45.640;11.302;2023-04-06T12:39:12;98745.78;;;12.99;39.31
40315;BME280;26021;45.640;11.302;2023-04-06T12:41:37;98735.09;;;13.06;40.81
40315;BME280;26021;45.640;11.302;2023-04-06T12:44:06;98666.03;;;13.21;42.51
40315;BME280;26021;45.640;11.302;2023-04-06T12:46:32;98711.47;;;13.51;40.53
40315;BME280;26021;45.640;11.302;2023-04-06T12:48:57;98730.94;;;13.59;40.24
40315;BME280;26021;45.640;11.302;2023-04-06T12:51:24;98731.47;;;13.89;39.30
40315;BME280;26021;45.640;11.302;2023-04-06T12:53:50;98705.34;;;13.70;39.24
40315;BME280;26021;45.640;11.302;2023-04-06T12:56:17;98710.63;;;14.05;39.58
40315;BME280;26021;45.640;11.302;2023-04-06T12:58:43;98723.00;;;13.86;39.74